Time,TemperatureF,DewpointF,PressureIn,WindDirection,WindDirectionDegrees,WindSpeedMPH,WindSpeedGustMPH,Humidity,HourlyPrecipIn,Conditions,Clouds,dailyrainin,SoftwareType,DateUTC
2013-06-25 00:02:00,74.0,67.0,-100.00,WSW,250,1.0,2.0,77,0.00,,,-99.99,,2013-06-25 04:02:00,
2013-06-25 00:11:00,74.0,67.0,-100.00,SSW,200,1.0,5.0,77,0.00,,,-99.99,,2013-06-25 04:11:00,
2013-06-25 00:22:00,74.0,67.0,-100.00,South,185,2.0,4.0,77,0.00,,,-99.99,,2013-06-25 04:22:00,
2013-06-25 00:34:00,74.0,67.0,-100.00,WSW,240,1.0,4.0,77,0.00,,,-99.99,,2013-06-25 04:34:00,
2013-06-25 00:43:00,74.0,67.0,-100.00,South,185,1.0,4.0,78,0.00,,,-99.99,,2013-06-25 04:43:00,
2013-06-25 00:52:00,74.0,67.0,-100.00,SSW,205,1.0,2.0,78,0.00,,,-99.99,,2013-06-25 04:52:00,
2013-06-25 01:22:00,74.0,67.0,-100.00,SW,235,0.0,3.0,79,0.00,,,-99.99,,2013-06-25 05:22:00,
2013-06-25 01:32:00,73.0,67.0,-100.00,East,85,1.0,3.0,80,0.00,,,-99.99,,2013-06-25 05:32:00,
2013-06-25 01:52:00,73.0,67.0,-100.00,South,175,0.0,1.0,80,0.00,,,-99.99,,2013-06-25 05:52:00,
2013-06-25 02:11:00,73.0,67.0,-100.00,South,190,1.0,4.0,79,0.00,,,-99.99,,2013-06-25 06:11:00,
2013-06-25 03:11:00,69.0,66.0,-100.00,SE,130,1.0,3.0,89,0.00,,,-99.99,,2013-06-25 07:11:00,
2013-06-25 03:22:00,69.0,66.0,-100.00,ESE,115,1.0,6.0,89,0.00,,,-99.99,,2013-06-25 07:22:00,
2013-06-25 03:52:00,71.0,66.0,-100.00,West,275,1.0,3.0,86,0.00,,,-99.99,,2013-06-25 07:52:00,
2013-06-25 04:02:00,71.0,66.0,-100.00,NW,320,1.0,2.0,85,0.00,,,-99.99,,2013-06-25 08:02:00,
2013-06-25 04:11:00,70.0,66.0,-100.00,SW,220,1.0,3.0,87,0.00,,,-99.99,,2013-06-25 08:11:00,
2013-06-25 04:34:00,70.0,66.0,-100.00,WNW,300,1.0,2.0,87,0.00,,,-99.99,,2013-06-25 08:34:00,
2013-06-25 04:43:00,70.0,66.0,-100.00,South,170,1.0,4.0,88,0.00,,,-99.99,,2013-06-25 08:43:00,
2013-06-25 04:53:00,69.0,66.0,-100.00,ENE,75,1.0,4.0,89,0.00,,,-99.99,,2013-06-25 08:53:00,
2013-06-25 05:02:00,70.0,66.0,-100.00,SSW,195,3.0,6.0,88,0.00,,,-99.99,,2013-06-25 09:02:00,
2013-06-25 05:52:00,70.0,66.0,-100.00,SSW,195,2.0,7.0,86,0.00,,,-99.99,,2013-06-25 09:52:00,
2013-06-25 06:01:00,70.0,66.0,-100.00,WNW,300,1.0,6.0,86,0.00,,,-99.99,,2013-06-25 10:01:00,
2013-06-25 06:52:00,69.0,65.0,-100.00,SW,215,2.0,5.0,86,0.00,,,-99.99,,2013-06-25 10:52:00,
2013-06-25 07:52:00,71.0,64.0,-100.00,SSW,200,4.0,9.0,80,0.00,,,-99.99,,2013-06-25 11:52:00,
2013-06-25 08:02:00,71.0,64.0,-100.00,WNW,290,1.0,6.0,79,0.00,,,-99.99,,2013-06-25 12:02:00,
2013-06-25 08:11:00,72.0,64.0,-100.00,SE,130,1.0,5.0,78,0.00,,,-99.99,,2013-06-25 12:11:00,
2013-06-25 08:22:00,72.0,65.0,-100.00,North,10,1.0,8.0,78,0.00,,,-99.99,,2013-06-25 12:22:00,
2013-06-25 08:33:00,73.0,65.0,-100.00,West,280,1.0,6.0,74,-99.99,,,-99.99,,2013-06-25 12:33:00,
2013-06-25 09:53:00,74.0,66.0,-100.00,SW,235,1.0,4.0,77,0.00,,,-99.99,,2013-06-25 13:53:00,
2013-06-25 10:02:00,75.0,66.0,-100.00,South,185,4.0,7.0,74,-99.99,,,-99.99,,2013-06-25 14:02:00,
2013-06-25 10:11:00,76.0,67.0,-100.00,South,190,4.0,9.0,74,-99.99,,,-99.99,,2013-06-25 14:11:00,
2013-06-25 10:23:00,76.0,67.0,-100.00,SE,140,2.0,7.0,72,-99.99,,,-99.99,,2013-06-25 14:23:00,
2013-06-25 10:34:00,77.0,67.0,-100.00,SSW,210,2.0,7.0,71,-99.99,,,-99.99,,2013-06-25 14:34:00,
2013-06-25 10:43:00,78.0,66.0,-100.00,SSE,155,2.0,6.0,67,-99.99,,,-99.99,,2013-06-25 14:43:00,
2013-06-25 10:53:00,79.0,67.0,-100.00,South,185,2.0,7.0,67,-99.99,,,-99.99,,2013-06-25 14:53:00,
2013-06-25 11:11:00,78.0,67.0,-100.00,WNW,300,4.0,7.0,67,-99.99,,,-99.99,,2013-06-25 15:11:00,
2013-06-25 11:22:00,80.0,68.0,-100.00,SW,215,2.0,9.0,66,0.00,,,-99.99,,2013-06-25 15:22:00,
2013-06-25 11:32:00,80.0,67.0,-100.00,SW,215,2.0,8.0,65,0.00,,,-99.99,,2013-06-25 15:32:00,
2013-06-25 11:53:00,81.0,69.0,-100.00,South,190,1.0,8.0,65,0.00,,,-99.99,,2013-06-25 15:53:00,
2013-06-25 13:53:00,84.0,69.0,-100.00,SSW,205,4.0,11.0,60,0.00,,,-99.99,,2013-06-25 17:53:00,
2013-06-25 14:53:00,86.0,69.0,-100.00,ESE,115,2.0,11.0,57,0.00,,,-99.99,,2013-06-25 18:53:00,
2013-06-25 15:01:00,87.0,69.0,-100.00,WSW,255,3.0,12.0,54,0.00,,,-99.99,,2013-06-25 19:01:00,
2013-06-25 15:53:00,87.0,69.0,-100.00,SSW,205,4.0,12.0,54,0.00,,,-99.99,,2013-06-25 19:53:00,
2013-06-25 16:02:00,88.0,68.0,-100.00,SW,215,4.0,8.0,52,0.00,,,-99.99,,2013-06-25 20:02:00,
2013-06-25 18:52:00,66.0,64.0,-100.00,SE,125,1.0,6.0,95,0.55,,,-99.99,,2013-06-25 22:52:00,
2013-06-25 19:22:00,66.0,64.0,-100.00,SE,125,1.0,6.0,95,0.55,,,-99.99,,2013-06-25 23:22:00,
2013-06-25 19:34:00,66.0,64.0,-100.00,SE,125,1.0,6.0,95,0.55,,,-99.99,,2013-06-25 23:34:00,
2013-06-25 19:44:00,66.0,64.0,-100.00,SE,125,1.0,6.0,95,0.55,,,-99.99,,2013-06-25 23:44:00,
2013-06-25 20:11:00,66.0,64.0,-100.00,SE,125,3.0,8.0,95,7.36,,,-99.99,,2013-06-26 00:11:00,
2013-06-25 20:22:00,66.0,64.0,-100.00,SE,125,3.0,8.0,95,7.36,,,-99.99,,2013-06-26 00:22:00,
2013-06-25 20:33:00,66.0,65.0,-100.00,ESE,110,1.0,3.0,95,0.55,,,-99.99,,2013-06-26 00:33:00,
2013-06-25 20:42:00,66.0,65.0,-100.00,ESE,110,1.0,3.0,95,0.55,,,-99.99,,2013-06-26 00:42:00,
2013-06-25 20:52:00,66.0,65.0,-100.00,ESE,110,1.0,3.0,95,0.55,,,-99.99,,2013-06-26 00:52:00,
2013-06-25 21:01:00,66.0,65.0,-100.00,ESE,110,1.0,3.0,95,0.55,,,-99.99,,2013-06-26 01:01:00,
2013-06-25 21:11:00,66.0,65.0,-100.00,ESE,110,1.0,3.0,95,0.55,,,-99.99,,2013-06-26 01:11:00,
2013-06-25 21:33:00,66.0,64.0,-100.00,WNW,290,1.0,5.0,95,5.08,,,-99.99,,2013-06-26 01:33:00,
2013-06-25 21:43:00,66.0,64.0,-100.00,WNW,290,1.0,5.0,95,5.08,,,-99.99,,2013-06-26 01:43:00,
2013-06-25 22:02:00,66.0,65.0,-100.00,ESE,120,2.0,6.0,95,0.00,,,-99.99,,2013-06-26 02:02:00,
2013-06-25 22:11:00,66.0,65.0,-100.00,ESE,120,2.0,6.0,95,0.00,,,-99.99,,2013-06-26 02:11:00,
2013-06-25 22:22:00,67.0,65.0,-100.00,East,100,4.0,9.0,95,0.55,,,-99.99,,2013-06-26 02:22:00,
2013-06-25 22:34:00,67.0,65.0,-100.00,East,100,4.0,9.0,95,0.55,,,-99.99,,2013-06-26 02:34:00,
2013-06-25 22:43:00,67.0,66.0,-100.00,East,95,1.0,6.0,95,0.00,,,-99.99,,2013-06-26 02:43:00,
2013-06-25 22:53:00,67.0,66.0,-100.00,East,95,1.0,6.0,95,0.00,,,-99.99,,2013-06-26 02:53:00,
2013-06-25 23:02:00,67.0,66.0,-100.00,East,95,1.0,6.0,95,0.00,,,-99.99,,2013-06-26 03:02:00,
2013-06-25 23:11:00,67.0,66.0,-100.00,East,95,1.0,6.0,95,0.00,,,-99.99,,2013-06-26 03:11:00,
2013-06-25 23:22:00,69.0,67.0,-100.00,East,100,1.0,4.0,94,0.00,,,-99.99,,2013-06-26 03:22:00,
2013-06-25 23:33:00,69.0,67.0,-100.00,East,100,1.0,4.0,94,0.00,,,-99.99,,2013-06-26 03:33:00,
2013-06-25 23:43:00,69.0,67.0,-100.00,East,100,1.0,4.0,94,0.00,,,-99.99,,2013-06-26 03:43:00,
2013-06-25 23:52:00,69.0,67.0,-100.00,East,100,1.0,4.0,94,0.00,,,-99.99,,2013-06-26 03:52:00,